sensor_id;sensor_type;location;lat;lon;timestamp;P1;durP1;ratioP1;P2;durP2;ratioP2
51034;SDS011;37062;52.546;13.230;2023-03-01T00:01:35;24.77;;;16.50;;
51034;SDS011;37062;52.546;13.230;2023-03-01T00:04:04;23.47;;;15.47;;
51034;SDS011;37062;52.546;13.230;2023-03-01T00:06:32;25.57;;;16.50;;
51034;SDS011;37062;52.546;13.230;2023-03-01T00:09:01;30.50;;;18.17;;
51034;SDS011;37062;52.546;13.230;2023-03-01T00:11:31;37.63;;;19.93;;
51034;SDS011;37062;52.546;13.230;2023-03-01T00:14:02;90.20;;;41.03;;
51034;SDS011;37062;52.546;13.230;2023-03-01T00:16:33;43.17;;;24.00;;
51034;SDS011;37062;52.546;13.230;2023-03-01T00:19:03;35.40;;;18.40;;
51034;SDS011;37062;52.546;13.230;2023-03-01T00:21:31;43.73;;;23.60;;
51034;SDS011;37062;52.546;13.230;2023-03-01T00:24:00;87.40;;;37.60;;
51034;SDS011;37062;52.546;13.230;2023-03-01T00:26:29;54.67;;;27.83;;
51034;SDS011;37062;52.546;13.230;2023-03-01T00:28:59;38.43;;;20.87;;
51034;SDS011;37062;52.546;13.230;2023-03-01T00:31:28;29.83;;;18.13;;
51034;SDS011;37062;52.546;13.230;2023-03-01T00:33:59;23.80;;;15.00;;
51034;SDS011;37062;52.546;13.230;2023-03-01T00:36:30;130.77;;;55.40;;
51034;SDS011;37062;52.546;13.230;2023-03-01T00:39:00;136.60;;;56.57;;
51034;SDS011;37062;52.546;13.230;2023-03-01T00:41:32;90.47;;;42.27;;
51034;SDS011;37062;52.546;13.230;2023-03-01T00:44:02;32.50;;;18.33;;
51034;SDS011;37062;52.546;13.230;2023-03-01T00:46:31;26.83;;;17.50;;
51034;SDS011;37062;52.546;13.230;2023-03-01T00:49:00;35.43;;;22.97;;
51034;SDS011;37062;52.546;13.230;2023-03-01T00:51:31;24.37;;;15.47;;
51034;SDS011;37062;52.546;13.230;2023-03-01T00:54:00;24.73;;;15.20;;
51034;SDS011;37062;52.546;13.230;2023-03-01T00:56:29;23.03;;;15.77;;
51034;SDS011;37062;52.546;13.230;2023-03-01T00:59:00;23.13;;;15.03;;
51034;SDS011;37062;52.546;13.230;2023-03-01T01:01:29;25.43;;;17.40;;
51034;SDS011;37062;52.546;13.230;2023-03-01T01:03:59;27.20;;;17.83;;
51034;SDS011;37062;52.546;13.230;2023-03-01T01:06:30;22.97;;;15.30;;
51034;SDS011;37062;52.546;13.230;2023-03-01T01:09:01;27.97;;;16.67;;
51034;SDS011;37062;52.546;13.230;2023-03-01T01:11:32;40.27;;;21.10;;
51034;SDS011;37062;52.546;13.230;2023-03-01T01:14:02;28.10;;;17.23;;
51034;SDS011;37062;52.546;13.230;2023-03-01T01:16:30;26.93;;;17.27;;
51034;SDS011;37062;52.546;13.230;2023-03-01T01:19:00;24.07;;;15.57;;
51034;SDS011;37062;52.546;13.230;2023-03-01T01:21:28;25.43;;;15.03;;
51034;SDS011;37062;52.546;13.230;2023-03-01T01:23:57;21.37;;;13.83;;
51034;SDS011;37062;52.546;13.230;2023-03-01T01:26:26;21.50;;;13.63;;
51034;SDS011;37062;52.546;13.230;2023-03-01T01:28:58;24.87;;;14.67;;
51034;SDS011;37062;52.546;13.230;2023-03-01T01:31:28;23.53;;;13.70;;
51034;SDS011;37062;52.546;13.230;2023-03-01T01:33:57;21.13;;;13.57;;
51034;SDS011;37062;52.546;13.230;2023-03-01T01:36:27;20.73;;;13.00;;
51034;SDS011;37062;52.546;13.230;2023-03-01T01:38:56;21.20;;;13.43;;
51034;SDS011;37062;52.546;13.230;2023-03-01T01:41:25;21.60;;;14.00;;
51034;SDS011;37062;52.546;13.230;2023-03-01T01:46:51;21.20;;;13.27;;
51034;SDS011;37062;52.546;13.230;2023-03-01T01:49:25;22.97;;;14.30;;
51034;SDS011;37062;52.546;13.230;2023-03-01T01:51:58;24.40;;;14.90;;
51034;SDS011;37062;52.546;13.230;2023-03-01T01:54:35;24.37;;;14.20;;
51034;SDS011;37062;52.546;13.230;2023-03-01T01:57:11;20.20;;;13.17;;
51034;SDS011;37062;52.546;13.230;2023-03-01T01:59:45;20.33;;;13.83;;
51034;SDS011;37062;52.546;13.230;2023-03-01T02:02:16;18.03;;;12.67;;
51034;SDS011;37062;52.546;13.230;2023-03-01T02:04:46;20.80;;;13.20;;
51034;SDS011;37062;52.546;13.230;2023-03-01T02:07:18;21.70;;;13.13;;
51034;SDS011;37062;52.546;13.230;2023-03-01T02:09:50;22.53;;;14.40;;
51034;SDS011;37062;52.546;13.230;2023-03-01T02:12:21;19.90;;;13.30;;
51034;SDS011;37062;52.546;13.230;2023-03-01T02:14:53;21.10;;;13.17;;
51034;SDS011;37062;52.546;13.230;2023-03-01T02:17:21;20.10;;;14.20;;
51034;SDS011;37062;52.546;13.230;2023-03-01T02:19:53;23.87;;;13.47;;
51034;SDS011;37062;52.546;13.230;2023-03-01T02:22:34;22.77;;;14.70;;
51034;SDS011;37062;52.546;13.230;2023-03-01T02:25:08;23.50;;;14.33;;
51034;SDS011;37062;52.546;13.230;2023-03-01T02:27:49;23.50;;;13.50;;
51034;SDS011;37062;52.546;13.230;2023-03-01T02:30:24;22.63;;;15.03;;
51034;SDS011;37062;52.546;13.230;2023-03-01T02:32:54;20.67;;;12.90;;
51034;SDS011;37062;52.546;13.230;2023-03-01T02:35:29;21.83;;;13.67;;
51034;SDS011;37062;52.546;13.230;2023-03-01T02:38:01;20.73;;;14.03;;
51034;SDS011;37062;52.546;13.230;2023-03-01T02:40:31;22.20;;;14.73;;
51034;SDS011;37062;52.546;13.230;2023-03-01T02:43:02;21.97;;;14.67;;
51034;SDS011;37062;52.546;13.230;2023-03-01T02:45:37;21.87;;;13.37;;
51034;SDS011;37062;52.546;13.230;2023-03-01T02:48:05;22.80;;;14.20;;
51034;SDS011;37062;52.546;13.230;2023-03-01T02:50:41;17.40;;;12.10;;
51034;SDS011;37062;52.546;13.230;2023-03-01T02:53:21;17.53;;;12.10;;
51034;SDS011;37062;52.546;13.230;2023-03-01T02:55:55;19.87;;;12.60;;
51034;SDS011;37062;52.546;13.230;2023-03-01T02:58:25;20.80;;;13.37;;
51034;SDS011;37062;52.546;13.230;2023-03-01T03:00:55;17.40;;;11.70;;
51034;SDS011;37062;52.546;13.230;2023-03-01T03:03:27;21.60;;;13.10;;
51034;SDS011;37062;52.546;13.230;2023-03-01T03:05:55;17.03;;;11.90;;
51034;SDS011;37062;52.546;13.230;2023-03-01T03:08:24;18.53;;;11.50;;
51034;SDS011;37062;52.546;13.230;2023-03-01T03:10:53;21.07;;;13.73;;
51034;SDS011;37062;52.546;13.230;2023-03-01T03:13:22;21.40;;;14.07;;
51034;SDS011;37062;52.546;13.230;2023-03-01T03:15:56;22.30;;;13.43;;
51034;SDS011;37062;52.546;13.230;2023-03-01T03:18:24;22.23;;;12.90;;
51034;SDS011;37062;52.546;13.230;2023-03-01T03:20:53;18.93;;;12.67;;
51034;SDS011;37062;52.546;13.230;2023-03-01T03:23:21;21.47;;;14.20;;
51034;SDS011;37062;52.546;13.230;2023-03-01T03:25:50;22.93;;;14.77;;
51034;SDS011;37062;52.546;13.230;2023-03-01T03:28:18;24.33;;;14.47;;
51034;SDS011;37062;52.546;13.230;2023-03-01T03:30:47;23.83;;;14.57;;
51034;SDS011;37062;52.546;13.230;2023-03-01T03:33:17;19.07;;;12.97;;
51034;SDS011;37062;52.546;13.230;2023-03-01T03:35:46;19.70;;;12.90;;
51034;SDS011;37062;52.546;13.230;2023-03-01T03:38:17;22.13;;;14.03;;
51034;SDS011;37062;52.546;13.230;2023-03-01T03:40:49;22.30;;;14.07;;
51034;SDS011;37062;52.546;13.230;2023-03-01T03:43:19;21.47;;;14.47;;
51034;SDS011;37062;52.546;13.230;2023-03-01T03:45:49;23.53;;;14.70;;
51034;SDS011;37062;52.546;13.230;2023-03-01T03:48:20;24.60;;;14.33;;
51034;SDS011;37062;52.546;13.230;2023-03-01T03:50:49;20.80;;;13.80;;
51034;SDS011;37062;52.546;13.230;2023-03-01T03:53:19;21.70;;;13.63;;
51034;SDS011;37062;52.546;13.230;2023-03-01T03:55:48;20.37;;;13.97;;
51034;SDS011;37062;52.546;13.230;2023-03-01T03:58:18;19.93;;;13.23;;
51034;SDS011;37062;52.546;13.230;2023-03-01T04:00:49;20.43;;;12.20;;
51034;SDS011;37062;52.546;13.230;2023-03-01T04:03:20;21.30;;;12.30;;
51034;SDS011;37062;52.546;13.230;2023-03-01T04:05:48;18.23;;;12.57;;
51034;SDS011;37062;52.546;13.230;2023-03-01T04:08:18;17.47;;;12.10;;
51034;SDS011;37062;52.546;13.230;2023-03-01T04:10:48;17.93;;;12.07;;
51034;SDS011;37062;52.546;13.230;2023-03-01T04:13:18;21.60;;;13.07;;
51034;SDS011;37062;52.546;13.230;2023-03-01T04:15:48;21.60;;;13.57;;
51034;SDS011;37062;52.546;13.230;2023-03-01T04:18:17;17.80;;;12.47;;
51034;SDS011;37062;52.546;13.230;2023-03-01T04:20:48;22.90;;;14.07;;
51034;SDS011;37062;52.546;13.230;2023-03-01T04:23:18;22.33;;;14.07;;
51034;SDS011;37062;52.546;13.230;2023-03-01T04:25:48;18.13;;;13.17;;
51034;SDS011;37062;52.546;13.230;2023-03-01T04:28:20;16.73;;;11.80;;
51034;SDS011;37062;52.546;13.230;2023-03-01T04:30:50;20.00;;;13.67;;
51034;SDS011;37062;52.546;13.230;2023-03-01T04:33:20;18.30;;;12.77;;
51034;SDS011;37062;52.546;13.230;2023-03-01T04:35:49;16.97;;;11.60;;
51034;SDS011;37062;52.546;13.230;2023-03-01T04:38:19;18.57;;;12.20;;
51034;SDS011;37062;52.546;13.230;2023-03-01T04:40:48;18.60;;;11.83;;
51034;SDS011;37062;52.546;13.230;2023-03-01T04:43:16;17.80;;;11.83;;
51034;SDS011;37062;52.546;13.230;2023-03-01T04:45:45;20.00;;;12.97;;
51034;SDS011;37062;52.546;13.230;2023-03-01T04:48:14;20.10;;;14.00;;
51034;SDS011;37062;52.546;13.230;2023-03-01T04:50:44;23.97;;;13.90;;
51034;SDS011;37062;52.546;13.230;2023-03-01T04:53:13;20.30;;;13.40;;
51034;SDS011;37062;52.546;13.230;2023-03-01T04:55:41;19.17;;;12.63;;
51034;SDS011;37062;52.546;13.230;2023-03-01T04:58:09;19.50;;;11.83;;
51034;SDS011;37062;52.546;13.230;2023-03-01T05:00:38;18.13;;;12.23;;
51034;SDS011;37062;52.546;13.230;2023-03-01T05:03:07;20.33;;;13.23;;
51034;SDS011;37062;52.546;13.230;2023-03-01T05:05:37;21.07;;;12.63;;
51034;SDS011;37062;52.546;13.230;2023-03-01T05:08:08;26.03;;;14.37;;
51034;SDS011;37062;52.546;13.230;2023-03-01T05:10:44;21.37;;;13.27;;
51034;SDS011;37062;52.546;13.230;2023-03-01T05:13:14;20.47;;;13.97;;
51034;SDS011;37062;52.546;13.230;2023-03-01T05:15:47;24.90;;;15.70;;
51034;SDS011;37062;52.546;13.230;2023-03-01T05:18:17;23.10;;;15.13;;
51034;SDS011;37062;52.546;13.230;2023-03-01T05:20:45;26.10;;;15.63;;
51034;SDS011;37062;52.546;13.230;2023-03-01T05:23:15;21.37;;;14.43;;
51034;SDS011;37062;52.546;13.230;2023-03-01T05:25:44;23.27;;;14.30;;
51034;SDS011;37062;52.546;13.230;2023-03-01T05:28:13;20.40;;;13.60;;
51034;SDS011;37062;52.546;13.230;2023-03-01T05:30:42;19.97;;;12.73;;
51034;SDS011;37062;52.546;13.230;2023-03-01T05:33:11;20.10;;;12.83;;
51034;SDS011;37062;52.546;13.230;2023-03-01T05:35:41;22.13;;;12.60;;
51034;SDS011;37062;52.546;13.230;2023-03-01T05:38:10;21.47;;;14.20;;
51034;SDS011;37062;52.546;13.230;2023-03-01T05:40:42;22.03;;;14.00;;
51034;SDS011;37062;52.546;13.230;2023-03-01T05:43:12;21.80;;;14.13;;
51034;SDS011;37062;52.546;13.230;2023-03-01T05:45:42;23.07;;;13.27;;
51034;SDS011;37062;52.546;13.230;2023-03-01T05:48:11;22.13;;;14.37;;
51034;SDS011;37062;52.546;13.230;2023-03-01T05:50:41;19.73;;;13.90;;
51034;SDS011;37062;52.546;13.230;2023-03-01T05:53:11;21.53;;;13.30;;
51034;SDS011;37062;52.546;13.230;2023-03-01T05:55:42;19.63;;;12.87;;
51034;SDS011;37062;52.546;13.230;2023-03-01T05:58:14;22.83;;;13.77;;
51034;SDS011;37062;52.546;13.230;2023-03-01T06:00:44;25.43;;;13.77;;
51034;SDS011;37062;52.546;13.230;2023-03-01T06:03:14;21.77;;;13.53;;
51034;SDS011;37062;52.546;13.230;2023-03-01T06:05:44;19.83;;;13.20;;
51034;SDS011;37062;52.546;13.230;2023-03-01T06:08:14;21.00;;;14.00;;
51034;SDS011;37062;52.546;13.230;2023-03-01T06:10:44;18.60;;;12.70;;
51034;SDS011;37062;52.546;13.230;2023-03-01T06:13:14;19.87;;;12.60;;
51034;SDS011;37062;52.546;13.230;2023-03-01T06:15:43;19.43;;;12.50;;
51034;SDS011;37062;52.546;13.230;2023-03-01T06:18:14;18.93;;;13.40;;
51034;SDS011;37062;52.546;13.230;2023-03-01T06:20:44;22.57;;;14.33;;
51034;SDS011;37062;52.546;13.230;2023-03-01T06:23:13;20.70;;;13.57;;
51034;SDS011;37062;52.546;13.230;2023-03-01T06:25:46;26.40;;;17.63;;
51034;SDS011;37062;52.546;13.230;2023-03-01T06:28:15;21.63;;;13.93;;
51034;SDS011;37062;52.546;13.230;2023-03-01T06:30:43;19.70;;;13.13;;
51034;SDS011;37062;52.546;13.230;2023-03-01T06:33:12;20.57;;;13.73;;
51034;SDS011;37062;52.546;13.230;2023-03-01T06:35:41;19.87;;;12.63;;
51034;SDS011;37062;52.546;13.230;2023-03-01T06:38:10;20.90;;;13.70;;
51034;SDS011;37062;52.546;13.230;2023-03-01T06:40:38;21.40;;;14.17;;
51034;SDS011;37062;52.546;13.230;2023-03-01T06:43:17;24.60;;;15.07;;
51034;SDS011;37062;52.546;13.230;2023-03-01T06:45:46;23.40;;;14.43;;
51034;SDS011;37062;52.546;13.230;2023-03-01T06:48:14;24.30;;;15.97;;
51034;SDS011;37062;52.546;13.230;2023-03-01T06:50:44;27.53;;;16.97;;
51034;SDS011;37062;52.546;13.230;2023-03-01T06:53:13;26.83;;;17.97;;
51034;SDS011;37062;52.546;13.230;2023-03-01T06:55:41;29.07;;;19.00;;
51034;SDS011;37062;52.546;13.230;2023-03-01T06:58:11;24.93;;;17.07;;
51034;SDS011;37062;52.546;13.230;2023-03-01T07:00:42;25.53;;;16.77;;
51034;SDS011;37062;52.546;13.230;2023-03-01T07:03:10;23.87;;;14.93;;
51034;SDS011;37062;52.546;13.230;2023-03-01T07:05:39;29.07;;;16.73;;
51034;SDS011;37062;52.546;13.230;2023-03-01T07:08:07;25.90;;;17.73;;
51034;SDS011;37062;52.546;13.230;2023-03-01T07:10:35;25.73;;;16.27;;
51034;SDS011;37062;52.546;13.230;2023-03-01T07:13:04;23.13;;;16.23;;
51034;SDS011;37062;52.546;13.230;2023-03-01T07:15:35;25.33;;;16.10;;
51034;SDS011;37062;52.546;13.230;2023-03-01T07:18:03;25.13;;;17.33;;
51034;SDS011;37062;52.546;13.230;2023-03-01T07:20:32;24.15;;;16.95;;
51034;SDS011;37062;52.546;13.230;2023-03-01T07:23:00;20.50;;;14.73;;
51034;SDS011;37062;52.546;13.230;2023-03-01T07:25:29;21.10;;;14.75;;
51034;SDS011;37062;52.546;13.230;2023-03-01T07:27:58;20.35;;;14.63;;
51034;SDS011;37062;52.546;13.230;2023-03-01T07:30:26;19.20;;;14.23;;
51034;SDS011;37062;52.546;13.230;2023-03-01T07:32:56;18.58;;;14.45;;
51034;SDS011;37062;52.546;13.230;2023-03-01T07:35:26;20.38;;;14.43;;
51034;SDS011;37062;52.546;13.230;2023-03-01T07:37:55;18.48;;;14.32;;
51034;SDS011;37062;52.546;13.230;2023-03-01T07:40:23;17.35;;;13.63;;
51034;SDS011;37062;52.546;13.230;2023-03-01T07:42:54;18.38;;;13.93;;
51034;SDS011;37062;52.546;13.230;2023-03-01T07:45:23;18.15;;;13.63;;
51034;SDS011;37062;52.546;13.230;2023-03-01T07:47:51;19.92;;;14.65;;
51034;SDS011;37062;52.546;13.230;2023-03-01T07:50:21;18.13;;;13.50;;
51034;SDS011;37062;52.546;13.230;2023-03-01T07:52:50;16.65;;;13.00;;
51034;SDS011;37062;52.546;13.230;2023-03-01T07:55:18;16.50;;;13.77;;
51034;SDS011;37062;52.546;13.230;2023-03-01T07:57:47;19.52;;;13.35;;
51034;SDS011;37062;52.546;13.230;2023-03-01T08:00:16;41.70;;;28.77;;
51034;SDS011;37062;52.546;13.230;2023-03-01T08:02:44;32.50;;;21.15;;
51034;SDS011;37062;52.546;13.230;2023-03-01T08:05:13;22.17;;;16.23;;
51034;SDS011;37062;52.546;13.230;2023-03-01T08:07:43;17.70;;;12.52;;
51034;SDS011;37062;52.546;13.230;2023-03-01T08:10:11;15.02;;;11.48;;
51034;SDS011;37062;52.546;13.230;2023-03-01T08:12:40;18.40;;;11.38;;
51034;SDS011;37062;52.546;13.230;2023-03-01T08:15:09;14.55;;;10.43;;
51034;SDS011;37062;52.546;13.230;2023-03-01T08:17:39;13.50;;;10.90;;
51034;SDS011;37062;52.546;13.230;2023-03-01T08:20:08;14.63;;;10.80;;
51034;SDS011;37062;52.546;13.230;2023-03-01T08:22:39;16.58;;;11.73;;
51034;SDS011;37062;52.546;13.230;2023-03-01T08:25:09;15.18;;;10.60;;
51034;SDS011;37062;52.546;13.230;2023-03-01T08:27:37;15.70;;;11.23;;
51034;SDS011;37062;52.546;13.230;2023-03-01T08:30:06;57.40;;;31.80;;
51034;SDS011;37062;52.546;13.230;2023-03-01T08:32:36;13.50;;;9.65;;
51034;SDS011;37062;52.546;13.230;2023-03-01T08:35:05;11.50;;;8.05;;
51034;SDS011;37062;52.546;13.230;2023-03-01T08:37:34;86.45;;;42.13;;
51034;SDS011;37062;52.546;13.230;2023-03-01T08:40:03;25.52;;;14.68;;
51034;SDS011;37062;52.546;13.230;2023-03-01T08:42:35;56.35;;;26.83;;
51034;SDS011;37062;52.546;13.230;2023-03-01T08:45:05;16.65;;;10.63;;
51034;SDS011;37062;52.546;13.230;2023-03-01T08:47:34;11.27;;;8.07;;
51034;SDS011;37062;52.546;13.230;2023-03-01T08:50:03;13.70;;;8.98;;
51034;SDS011;37062;52.546;13.230;2023-03-01T08:52:32;11.25;;;7.65;;
51034;SDS011;37062;52.546;13.230;2023-03-01T08:55:01;10.77;;;7.43;;
51034;SDS011;37062;52.546;13.230;2023-03-01T08:57:29;21.60;;;10.55;;
51034;SDS011;37062;52.546;13.230;2023-03-01T08:59:59;13.65;;;7.50;;
51034;SDS011;37062;52.546;13.230;2023-03-01T09:02:27;8.32;;;6.40;;
51034;SDS011;37062;52.546;13.230;2023-03-01T09:04:56;10.95;;;6.65;;
51034;SDS011;37062;52.546;13.230;2023-03-01T09:07:25;10.15;;;7.45;;
51034;SDS011;37062;52.546;13.230;2023-03-01T09:09:55;10.65;;;7.53;;
51034;SDS011;37062;52.546;13.230;2023-03-01T09:12:23;54.05;;;26.73;;
51034;SDS011;37062;52.546;13.230;2023-03-01T09:14:52;10.75;;;6.35;;
51034;SDS011;37062;52.546;13.230;2023-03-01T09:17:22;13.85;;;8.15;;
51034;SDS011;37062;52.546;13.230;2023-03-01T09:19:50;11.63;;;7.43;;
51034;SDS011;37062;52.546;13.230;2023-03-01T09:22:19;12.18;;;6.32;;
51034;SDS011;37062;52.546;13.230;2023-03-01T09:24:47;10.60;;;6.93;;
51034;SDS011;37062;52.546;13.230;2023-03-01T09:27:15;12.43;;;7.90;;
51034;SDS011;37062;52.546;13.230;2023-03-01T09:29:45;12.05;;;7.28;;
51034;SDS011;37062;52.546;13.230;2023-03-01T09:32:13;9.63;;;6.80;;
51034;SDS011;37062;52.546;13.230;2023-03-01T09:34:43;9.00;;;6.75;;
51034;SDS011;37062;52.546;13.230;2023-03-01T09:37:31;11.07;;;7.28;;
51034;SDS011;37062;52.546;13.230;2023-03-01T09:40:01;7.78;;;6.28;;
51034;SDS011;37062;52.546;13.230;2023-03-01T09:42:31;9.55;;;6.35;;
51034;SDS011;37062;52.546;13.230;2023-03-01T09:45:02;9.43;;;6.53;;
51034;SDS011;37062;52.546;13.230;2023-03-01T09:47:33;7.80;;;5.47;;
51034;SDS011;37062;52.546;13.230;2023-03-01T09:50:06;10.15;;;5.57;;
51034;SDS011;37062;52.546;13.230;2023-03-01T09:52:41;8.40;;;5.50;;
51034;SDS011;37062;52.546;13.230;2023-03-01T09:55:13;8.05;;;5.32;;
51034;SDS011;37062;52.546;13.230;2023-03-01T09:57:45;7.50;;;5.30;;
51034;SDS011;37062;52.546;13.230;2023-03-01T10:00:25;11.10;;;6.55;;
51034;SDS011;37062;52.546;13.230;2023-03-01T10:03:02;8.23;;;4.68;;
51034;SDS011;37062;52.546;13.230;2023-03-01T10:05:52;8.38;;;4.20;;
51034;SDS011;37062;52.546;13.230;2023-03-01T10:08:29;6.65;;;4.00;;
51034;SDS011;37062;52.546;13.230;2023-03-01T10:11:03;5.10;;;3.83;;
51034;SDS011;37062;52.546;13.230;2023-03-01T10:13:50;6.85;;;3.70;;
51034;SDS011;37062;52.546;13.230;2023-03-01T10:16:26;4.53;;;3.20;;
51034;SDS011;37062;52.546;13.230;2023-03-01T10:19:14;4.75;;;2.90;;
51034;SDS011;37062;52.546;13.230;2023-03-01T10:21:52;5.00;;;2.80;;
51034;SDS011;37062;52.546;13.230;2023-03-01T10:24:21;4.25;;;2.60;;
51034;SDS011;37062;52.546;13.230;2023-03-01T10:26:53;4.57;;;2.50;;
51034;SDS011;37062;52.546;13.230;2023-03-01T10:29:24;11.70;;;6.05;;
51034;SDS011;37062;52.546;13.230;2023-03-01T10:31:57;4.57;;;3.05;;
51034;SDS011;37062;52.546;13.230;2023-03-01T10:34:27;6.00;;;3.13;;
51034;SDS011;37062;52.546;13.230;2023-03-01T10:37:00;4.32;;;3.25;;
51034;SDS011;37062;52.546;13.230;2023-03-01T10:39:37;6.65;;;3.70;;
51034;SDS011;37062;52.546;13.230;2023-03-01T10:42:25;4.60;;;2.83;;
51034;SDS011;37062;52.546;13.230;2023-03-01T10:44:58;5.43;;;3.40;;
51034;SDS011;37062;52.546;13.230;2023-03-01T10:47:43;5.20;;;3.15;;
51034;SDS011;37062;52.546;13.230;2023-03-01T10:50:18;4.22;;;3.13;;
51034;SDS011;37062;52.546;13.230;2023-03-01T10:52:57;4.78;;;3.13;;
51034;SDS011;37062;52.546;13.230;2023-03-01T10:55:28;5.57;;;3.35;;
51034;SDS011;37062;52.546;13.230;2023-03-01T10:58:08;4.10;;;3.03;;
51034;SDS011;37062;52.546;13.230;2023-03-01T11:00:47;4.07;;;3.05;;
51034;SDS011;37062;52.546;13.230;2023-03-01T11:03:18;4.57;;;3.20;;
51034;SDS011;37062;52.546;13.230;2023-03-01T11:05:50;4.13;;;3.28;;
51034;SDS011;37062;52.546;13.230;2023-03-01T11:08:41;5.75;;;3.38;;
51034;SDS011;37062;52.546;13.230;2023-03-01T11:11:19;6.35;;;3.20;;
51034;SDS011;37062;52.546;13.230;2023-03-01T11:13:54;4.45;;;3.10;;
51034;SDS011;37062;52.546;13.230;2023-03-01T11:16:34;7.40;;;3.25;;
51034;SDS011;37062;52.546;13.230;2023-03-01T11:19:15;4.07;;;3.05;;
51034;SDS011;37062;52.546;13.230;2023-03-01T11:21:52;4.72;;;2.80;;
51034;SDS011;37062;52.546;13.230;2023-03-01T11:24:29;6.05;;;3.10;;
51034;SDS011;37062;52.546;13.230;2023-03-01T11:27:03;3.97;;;3.10;;
51034;SDS011;37062;52.546;13.230;2023-03-01T11:29:37;4.75;;;2.80;;
51034;SDS011;37062;52.546;13.230;2023-03-01T11:32:14;4.22;;;2.92;;
51034;SDS011;37062;52.546;13.230;2023-03-01T11:34:44;4.50;;;2.97;;
51034;SDS011;37062;52.546;13.230;2023-03-01T11:37:20;3.83;;;2.95;;
51034;SDS011;37062;52.546;13.230;2023-03-01T11:39:58;4.22;;;2.78;;
51034;SDS011;37062;52.546;13.230;2023-03-01T11:42:37;4.47;;;2.90;;
51034;SDS011;37062;52.546;13.230;2023-03-01T11:45:16;6.28;;;2.80;;
51034;SDS011;37062;52.546;13.230;2023-03-01T11:47:49;4.63;;;3.10;;
51034;SDS011;37062;52.546;13.230;2023-03-01T11:50:30;5.13;;;2.40;;
51034;SDS011;37062;52.546;13.230;2023-03-01T11:53:22;4.82;;;2.92;;
51034;SDS011;37062;52.546;13.230;2023-03-01T11:56:14;4.05;;;2.80;;
51034;SDS011;37062;52.546;13.230;2023-03-01T12:01:50;3.80;;;2.78;;
51034;SDS011;37062;52.546;13.230;2023-03-01T12:04:36;6.35;;;2.63;;
51034;SDS011;37062;52.546;13.230;2023-03-01T12:07:23;4.38;;;2.90;;
51034;SDS011;37062;52.546;13.230;2023-03-01T12:10:10;4.43;;;2.60;;
51034;SDS011;37062;52.546;13.230;2023-03-01T12:12:53;6.22;;;2.67;;
51034;SDS011;37062;52.546;13.230;2023-03-01T12:18:42;5.65;;;3.13;;
51034;SDS011;37062;52.546;13.230;2023-03-01T12:21:36;4.43;;;3.05;;
51034;SDS011;37062;52.546;13.230;2023-03-01T12:24:21;6.07;;;2.83;;
51034;SDS011;37062;52.546;13.230;2023-03-01T12:27:14;6.25;;;3.88;;
51034;SDS011;37062;52.546;13.230;2023-03-01T12:30:03;5.35;;;2.97;;
51034;SDS011;37062;52.546;13.230;2023-03-01T12:32:50;4.88;;;2.80;;
51034;SDS011;37062;52.546;13.230;2023-03-01T12:35:35;5.25;;;2.60;;
51034;SDS011;37062;52.546;13.230;2023-03-01T12:38:19;4.88;;;2.75;;
51034;SDS011;37062;52.546;13.230;2023-03-01T12:41:11;3.60;;;2.67;;
51034;SDS011;37062;52.546;13.230;2023-03-01T12:44:01;3.85;;;2.67;;
51034;SDS011;37062;52.546;13.230;2023-03-01T12:46:44;3.40;;;2.47;;
51034;SDS011;37062;52.546;13.230;2023-03-01T12:49:20;4.35;;;3.20;;
51034;SDS011;37062;52.546;13.230;2023-03-01T12:51:56;5.53;;;3.22;;
51034;SDS011;37062;52.546;13.230;2023-03-01T12:54:29;4.20;;;2.97;;
51034;SDS011;37062;52.546;13.230;2023-03-01T12:57:02;5.25;;;3.30;;
51034;SDS011;37062;52.546;13.230;2023-03-01T12:59:44;5.55;;;2.70;;
51034;SDS011;37062;52.546;13.230;2023-03-01T13:02:24;2.95;;;2.17;;
51034;SDS011;37062;52.546;13.230;2023-03-01T13:05:01;4.75;;;2.60;;
51034;SDS011;37062;52.546;13.230;2023-03-01T13:07:39;7.80;;;2.85;;
51034;SDS011;37062;52.546;13.230;2023-03-01T13:10:20;5.10;;;2.92;;
51034;SDS011;37062;52.546;13.230;2023-03-01T13:15:40;3.75;;;2.63;;
51034;SDS011;37062;52.546;13.230;2023-03-01T13:18:29;5.68;;;3.00;;
51034;SDS011;37062;52.546;13.230;2023-03-01T13:21:02;5.07;;;3.50;;
51034;SDS011;37062;52.546;13.230;2023-03-01T13:23:33;4.15;;;2.65;;
51034;SDS011;37062;52.546;13.230;2023-03-01T13:26:05;3.97;;;2.88;;
51034;SDS011;37062;52.546;13.230;2023-03-01T13:38:04;3.78;;;2.83;;
51034;SDS011;37062;52.546;13.230;2023-03-01T13:41:12;4.72;;;2.85;;
51034;SDS011;37062;52.546;13.230;2023-03-01T13:43:41;4.90;;;2.95;;
51034;SDS011;37062;52.546;13.230;2023-03-01T13:46:14;5.50;;;3.22;;
51034;SDS011;37062;52.546;13.230;2023-03-01T13:48:47;5.00;;;3.22;;
51034;SDS011;37062;52.546;13.230;2023-03-01T13:51:23;5.45;;;2.97;;
51034;SDS011;37062;52.546;13.230;2023-03-01T13:53:55;5.22;;;2.63;;
51034;SDS011;37062;52.546;13.230;2023-03-01T13:56:25;2.70;;;2.22;;
51034;SDS011;37062;52.546;13.230;2023-03-01T13:58:58;4.82;;;2.83;;
51034;SDS011;37062;52.546;13.230;2023-03-01T14:01:30;4.43;;;2.78;;
51034;SDS011;37062;52.546;13.230;2023-03-01T14:04:02;5.22;;;2.55;;
51034;SDS011;37062;52.546;13.230;2023-03-01T14:06:32;9.10;;;4.25;;
51034;SDS011;37062;52.546;13.230;2023-03-01T14:09:04;17.23;;;7.85;;
51034;SDS011;37062;52.546;13.230;2023-03-01T14:11:54;5.03;;;3.42;;
51034;SDS011;37062;52.546;13.230;2023-03-01T14:14:45;4.50;;;2.72;;
51034;SDS011;37062;52.546;13.230;2023-03-01T14:17:25;3.75;;;2.28;;
51034;SDS011;37062;52.546;13.230;2023-03-01T14:20:08;7.38;;;2.60;;
51034;SDS011;37062;52.546;13.230;2023-03-01T14:22:42;3.60;;;2.45;;
51034;SDS011;37062;52.546;13.230;2023-03-01T14:25:24;5.93;;;3.38;;
51034;SDS011;37062;52.546;13.230;2023-03-01T14:27:56;3.80;;;2.38;;
51034;SDS011;37062;52.546;13.230;2023-03-01T14:30:35;16.77;;;7.32;;
51034;SDS011;37062;52.546;13.230;2023-03-01T14:33:06;4.40;;;2.42;;
51034;SDS011;37062;52.546;13.230;2023-03-01T14:35:55;6.30;;;2.70;;
51034;SDS011;37062;52.546;13.230;2023-03-01T14:38:29;6.88;;;2.72;;
51034;SDS011;37062;52.546;13.230;2023-03-01T14:41:02;45.17;;;20.98;;
51034;SDS011;37062;52.546;13.230;2023-03-01T14:43:41;4.72;;;2.75;;
51034;SDS011;37062;52.546;13.230;2023-03-01T14:46:19;5.10;;;2.40;;
51034;SDS011;37062;52.546;13.230;2023-03-01T14:48:56;9.32;;;2.90;;
51034;SDS011;37062;52.546;13.230;2023-03-01T14:51:31;4.25;;;2.30;;
51034;SDS011;37062;52.546;13.230;2023-03-01T14:54:21;3.42;;;2.40;;
51034;SDS011;37062;52.546;13.230;2023-03-01T14:56:57;8.07;;;4.05;;
51034;SDS011;37062;52.546;13.230;2023-03-01T14:59:49;26.20;;;12.27;;
51034;SDS011;37062;52.546;13.230;2023-03-01T15:02:22;2.65;;;2.30;;
51034;SDS011;37062;52.546;13.230;2023-03-01T15:04:52;4.10;;;2.25;;
51034;SDS011;37062;52.546;13.230;2023-03-01T15:07:26;5.10;;;2.22;;
51034;SDS011;37062;52.546;13.230;2023-03-01T15:10:02;15.07;;;8.20;;
51034;SDS011;37062;52.546;13.230;2023-03-01T15:12:43;4.65;;;2.50;;